This is the latest recevied weather packets stored in our database for station/object TG9ADI-20. If no packets are shown the sender has not sent any weather packets the latest 1 day(s).
| Time | Temp. | Humidity | Pressure | Rain* | Wind** | Luminosity | Snow |
|---|---|---|---|---|---|---|---|
| 1778062181 | 18.89° C | 92% | 1014 hPa | 0 mm | - | - | - |
| 1778060980 | 18.89° C | 92% | 1014 hPa | 0 mm | - | - | - |
| 1778059178 | 19.44° C | 88% | 1014 hPa | 0 mm | - | - | - |
| 1778058577 | 16.67° C | 99% | 1014 hPa | 0 mm | - | - | - |
| 1778057977 | 16.67° C | 99% | 1014 hPa | 0 mm | - | - | - |
| 1778056776 | 17.78° C | 98% | 1014 hPa | 0 mm | - | - | - |
| 1778056175 | 17.78° C | 98% | 1014 hPa | 0 mm | - | - | - |
| 1778054974 | 18.89° C | 96% | 1014 hPa | 0 mm | - | - | - |
| 1778053726 | 18.89° C | 96% | 1014 hPa | 0 mm | - | - | - |
| 1778053125 | 18.89° C | 96% | 1014 hPa | 0 mm | - | - | - |
| 1778052524 | 18.89° C | 95% | 1014 hPa | 0 mm | - | - | - |
| 1778051323 | 18.89° C | 90% | 1014 hPa | 0 mm | - | - | - |
| 1778050722 | 18.89° C | 80% | 1014 hPa | 0 mm | - | - | - |
| 1778049521 | 19.44° C | 82% | 1014 hPa | 0 mm | - | - | - |
| 1778048920 | 18.89° C | 83% | 1015 hPa | 0 mm | - | - | - |
| 1778048320 | 18.89° C | 84% | 1015 hPa | 0 mm | - | - | - |
| 1778047719 | 18.89° C | 86% | 1015 hPa | 0 mm | - | - | - |
| 1778047118 | 19.44° C | 97% | 1015 hPa | 0 mm | - | - | - |
| 1778045917 | 18.89° C | 96% | 1015 hPa | 0 mm | - | - | - |
| 1778045316 | 18.89° C | 96% | 1015 hPa | 0 mm | - | - | - |
| 1778044115 | 19.44° C | 94% | 1015 hPa | 0 mm | - | - | - |
| 1778043514 | 17.22° C | 97% | 1015 hPa | 0 mm | - | - | - |
| 1778041712 | 20° C | 93% | 1015 hPa | 0 mm | - | - | - |
| 1778041111 | 17.78° C | 96% | 1015 hPa | 0 mm | - | - | - |
| 1778039910 | 19.44° C | 92% | 1015 hPa | 0 mm | - | - | - |
* Rain latest hour (hover to see other rain measurements)
** Current wind speed in m/s (hover to see current wind gust speed)